sensor_id;sensor_type;location;lat;lon;timestamp;P1;durP1;ratioP1;P2;durP2;ratioP2
36799;SDS011;22752;51.960;5.886;2023-12-28T00:01:08;4.77;;;2.40;;
36799;SDS011;22752;51.960;5.886;2023-12-28T00:03:34;3.30;;;2.17;;
36799;SDS011;22752;51.960;5.886;2023-12-28T00:05:59;2.93;;;1.90;;
36799;SDS011;22752;51.960;5.886;2023-12-28T00:08:25;3.00;;;1.87;;
36799;SDS011;22752;51.960;5.886;2023-12-28T00:10:50;6.40;;;2.40;;
36799;SDS011;22752;51.960;5.886;2023-12-28T00:13:16;6.23;;;2.37;;
36799;SDS011;22752;51.960;5.886;2023-12-28T00:15:42;5.23;;;2.20;;
36799;SDS011;22752;51.960;5.886;2023-12-28T00:18:08;7.27;;;2.60;;
36799;SDS011;22752;51.960;5.886;2023-12-28T00:20:33;3.60;;;2.33;;
36799;SDS011;22752;51.960;5.886;2023-12-28T00:22:59;3.53;;;2.10;;
36799;SDS011;22752;51.960;5.886;2023-12-28T00:25:25;3.77;;;2.30;;
36799;SDS011;22752;51.960;5.886;2023-12-28T00:27:51;3.10;;;2.50;;
36799;SDS011;22752;51.960;5.886;2023-12-28T00:30:16;8.13;;;2.53;;
36799;SDS011;22752;51.960;5.886;2023-12-28T00:32:45;5.60;;;2.30;;
36799;SDS011;22752;51.960;5.886;2023-12-28T00:35:11;3.43;;;2.33;;
36799;SDS011;22752;51.960;5.886;2023-12-28T00:37:36;3.23;;;2.23;;
36799;SDS011;22752;51.960;5.886;2023-12-28T00:40:02;6.90;;;2.70;;
36799;SDS011;22752;51.960;5.886;2023-12-28T00:42:28;5.20;;;2.60;;
36799;SDS011;22752;51.960;5.886;2023-12-28T00:44:54;3.73;;;2.30;;
36799;SDS011;22752;51.960;5.886;2023-12-28T00:47:19;5.07;;;2.40;;
36799;SDS011;22752;51.960;5.886;2023-12-28T00:49:45;5.90;;;2.10;;
36799;SDS011;22752;51.960;5.886;2023-12-28T00:52:11;3.47;;;2.10;;
36799;SDS011;22752;51.960;5.886;2023-12-28T00:54:36;3.30;;;2.30;;
36799;SDS011;22752;51.960;5.886;2023-12-28T00:57:05;8.40;;;2.30;;
36799;SDS011;22752;51.960;5.886;2023-12-28T00:59:31;4.13;;;2.40;;
36799;SDS011;22752;51.960;5.886;2023-12-28T01:01:57;4.60;;;2.40;;
36799;SDS011;22752;51.960;5.886;2023-12-28T01:04:22;3.27;;;2.10;;
36799;SDS011;22752;51.960;5.886;2023-12-28T01:06:48;4.07;;;2.43;;
36799;SDS011;22752;51.960;5.886;2023-12-28T01:09:14;4.43;;;2.27;;
36799;SDS011;22752;51.960;5.886;2023-12-28T01:11:40;5.33;;;2.17;;
36799;SDS011;22752;51.960;5.886;2023-12-28T01:14:06;3.10;;;2.00;;
36799;SDS011;22752;51.960;5.886;2023-12-28T01:16:32;4.40;;;2.30;;
36799;SDS011;22752;51.960;5.886;2023-12-28T01:18:57;5.30;;;2.53;;
36799;SDS011;22752;51.960;5.886;2023-12-28T01:21:23;5.70;;;2.40;;
36799;SDS011;22752;51.960;5.886;2023-12-28T01:23:50;3.73;;;2.40;;
36799;SDS011;22752;51.960;5.886;2023-12-28T01:26:16;4.87;;;2.40;;
36799;SDS011;22752;51.960;5.886;2023-12-28T01:28:42;4.67;;;2.70;;
36799;SDS011;22752;51.960;5.886;2023-12-28T01:31:08;7.07;;;2.60;;
36799;SDS011;22752;51.960;5.886;2023-12-28T01:33:34;3.33;;;2.20;;
36799;SDS011;22752;51.960;5.886;2023-12-28T01:36:00;4.50;;;2.40;;
36799;SDS011;22752;51.960;5.886;2023-12-28T01:38:26;4.67;;;2.33;;
36799;SDS011;22752;51.960;5.886;2023-12-28T01:40:52;4.50;;;2.40;;
36799;SDS011;22752;51.960;5.886;2023-12-28T01:43:18;3.10;;;2.23;;
36799;SDS011;22752;51.960;5.886;2023-12-28T01:45:44;7.17;;;2.70;;
36799;SDS011;22752;51.960;5.886;2023-12-28T01:48:10;4.97;;;2.47;;
36799;SDS011;22752;51.960;5.886;2023-12-28T01:50:38;4.60;;;2.37;;
36799;SDS011;22752;51.960;5.886;2023-12-28T01:53:04;8.83;;;3.30;;
36799;SDS011;22752;51.960;5.886;2023-12-28T01:55:31;4.07;;;2.60;;
36799;SDS011;22752;51.960;5.886;2023-12-28T01:57:58;5.50;;;2.50;;
36799;SDS011;22752;51.960;5.886;2023-12-28T02:00:24;4.97;;;2.30;;
36799;SDS011;22752;51.960;5.886;2023-12-28T02:02:50;5.50;;;2.60;;
36799;SDS011;22752;51.960;5.886;2023-12-28T02:05:17;3.67;;;2.50;;
36799;SDS011;22752;51.960;5.886;2023-12-28T02:07:43;9.33;;;2.80;;
36799;SDS011;22752;51.960;5.886;2023-12-28T02:10:09;3.37;;;2.30;;
36799;SDS011;22752;51.960;5.886;2023-12-28T02:12:34;7.43;;;2.30;;
36799;SDS011;22752;51.960;5.886;2023-12-28T02:15:00;5.40;;;2.43;;
36799;SDS011;22752;51.960;5.886;2023-12-28T02:19:58;3.75;;;2.53;;
36799;SDS011;22752;51.960;5.886;2023-12-28T02:22:25;5.57;;;2.50;;
36799;SDS011;22752;51.960;5.886;2023-12-28T02:25:05;3.50;;;2.40;;
36799;SDS011;22752;51.960;5.886;2023-12-28T02:27:33;5.60;;;2.80;;
36799;SDS011;22752;51.960;5.886;2023-12-28T02:30:03;4.73;;;2.43;;
36799;SDS011;22752;51.960;5.886;2023-12-28T02:36:16;5.43;;;2.67;;
36799;SDS011;22752;51.960;5.886;2023-12-28T02:38:29;4.23;;;2.47;;
36799;SDS011;22752;51.960;5.886;2023-12-28T02:40:57;5.67;;;2.77;;
36799;SDS011;22752;51.960;5.886;2023-12-28T02:43:23;5.63;;;2.27;;
36799;SDS011;22752;51.960;5.886;2023-12-28T02:45:49;4.00;;;2.23;;
36799;SDS011;22752;51.960;5.886;2023-12-28T02:48:14;5.53;;;2.47;;
36799;SDS011;22752;51.960;5.886;2023-12-28T02:50:40;5.70;;;2.30;;
36799;SDS011;22752;51.960;5.886;2023-12-28T02:53:06;5.67;;;2.23;;
36799;SDS011;22752;51.960;5.886;2023-12-28T02:55:31;4.43;;;2.20;;
36799;SDS011;22752;51.960;5.886;2023-12-28T02:57:57;4.57;;;2.10;;
36799;SDS011;22752;51.960;5.886;2023-12-28T03:00:26;6.47;;;2.73;;
36799;SDS011;22752;51.960;5.886;2023-12-28T03:02:52;4.90;;;2.63;;
36799;SDS011;22752;51.960;5.886;2023-12-28T03:05:18;6.00;;;2.40;;
36799;SDS011;22752;51.960;5.886;2023-12-28T03:07:43;10.63;;;2.70;;
36799;SDS011;22752;51.960;5.886;2023-12-28T03:10:09;3.90;;;2.07;;
36799;SDS011;22752;51.960;5.886;2023-12-28T03:12:38;5.57;;;2.73;;
36799;SDS011;22752;51.960;5.886;2023-12-28T03:15:04;9.10;;;2.40;;
36799;SDS011;22752;51.960;5.886;2023-12-28T03:17:30;8.13;;;2.30;;
36799;SDS011;22752;51.960;5.886;2023-12-28T03:19:58;6.53;;;2.13;;
36799;SDS011;22752;51.960;5.886;2023-12-28T03:22:24;4.27;;;2.00;;
36799;SDS011;22752;51.960;5.886;2023-12-28T03:24:50;6.67;;;1.93;;
36799;SDS011;22752;51.960;5.886;2023-12-28T03:27:16;5.27;;;1.90;;
36799;SDS011;22752;51.960;5.886;2023-12-28T03:29:42;6.57;;;2.00;;
36799;SDS011;22752;51.960;5.886;2023-12-28T03:32:08;6.70;;;2.57;;
36799;SDS011;22752;51.960;5.886;2023-12-28T03:34:33;4.93;;;2.20;;
36799;SDS011;22752;51.960;5.886;2023-12-28T03:37:00;8.47;;;2.20;;
36799;SDS011;22752;51.960;5.886;2023-12-28T03:39:26;5.33;;;2.20;;
36799;SDS011;22752;51.960;5.886;2023-12-28T03:41:51;8.00;;;2.03;;
36799;SDS011;22752;51.960;5.886;2023-12-28T03:44:18;9.77;;;2.23;;
36799;SDS011;22752;51.960;5.886;2023-12-28T03:46:47;7.53;;;2.40;;
36799;SDS011;22752;51.960;5.886;2023-12-28T03:49:15;6.87;;;2.00;;
36799;SDS011;22752;51.960;5.886;2023-12-28T03:51:44;8.37;;;2.10;;
36799;SDS011;22752;51.960;5.886;2023-12-28T03:54:11;7.30;;;2.50;;
36799;SDS011;22752;51.960;5.886;2023-12-28T03:56:37;11.80;;;2.07;;
36799;SDS011;22752;51.960;5.886;2023-12-28T03:59:05;6.43;;;1.90;;
36799;SDS011;22752;51.960;5.886;2023-12-28T04:01:31;9.47;;;3.40;;
36799;SDS011;22752;51.960;5.886;2023-12-28T04:03:57;11.00;;;1.97;;
36799;SDS011;22752;51.960;5.886;2023-12-28T04:06:23;6.33;;;2.00;;
36799;SDS011;22752;51.960;5.886;2023-12-28T04:08:49;8.10;;;2.10;;
36799;SDS011;22752;51.960;5.886;2023-12-28T04:11:14;8.67;;;2.03;;
36799;SDS011;22752;51.960;5.886;2023-12-28T04:13:40;7.60;;;1.93;;
36799;SDS011;22752;51.960;5.886;2023-12-28T04:16:06;5.47;;;1.73;;
36799;SDS011;22752;51.960;5.886;2023-12-28T04:18:32;10.53;;;2.47;;
36799;SDS011;22752;51.960;5.886;2023-12-28T04:20:58;7.70;;;2.20;;
36799;SDS011;22752;51.960;5.886;2023-12-28T04:23:23;7.43;;;2.00;;
36799;SDS011;22752;51.960;5.886;2023-12-28T04:25:50;12.40;;;3.13;;
36799;SDS011;22752;51.960;5.886;2023-12-28T04:28:15;7.00;;;1.97;;
36799;SDS011;22752;51.960;5.886;2023-12-28T04:30:41;11.00;;;2.07;;
36799;SDS011;22752;51.960;5.886;2023-12-28T04:33:06;11.27;;;2.20;;
36799;SDS011;22752;51.960;5.886;2023-12-28T04:35:32;9.03;;;2.07;;
36799;SDS011;22752;51.960;5.886;2023-12-28T04:37:58;8.00;;;2.03;;
36799;SDS011;22752;51.960;5.886;2023-12-28T04:40:23;7.80;;;2.70;;
36799;SDS011;22752;51.960;5.886;2023-12-28T04:42:49;16.10;;;2.00;;
36799;SDS011;22752;51.960;5.886;2023-12-28T04:45:15;7.40;;;2.00;;
36799;SDS011;22752;51.960;5.886;2023-12-28T04:47:40;7.07;;;2.27;;
36799;SDS011;22752;51.960;5.886;2023-12-28T04:50:06;11.40;;;2.63;;
36799;SDS011;22752;51.960;5.886;2023-12-28T04:52:32;9.30;;;2.63;;
36799;SDS011;22752;51.960;5.886;2023-12-28T04:54:58;8.93;;;2.17;;
36799;SDS011;22752;51.960;5.886;2023-12-28T04:57:24;10.33;;;2.47;;
36799;SDS011;22752;51.960;5.886;2023-12-28T04:59:51;9.07;;;2.00;;
36799;SDS011;22752;51.960;5.886;2023-12-28T05:02:17;7.90;;;1.97;;
36799;SDS011;22752;51.960;5.886;2023-12-28T05:04:43;11.83;;;2.20;;
36799;SDS011;22752;51.960;5.886;2023-12-28T05:07:08;14.03;;;2.73;;
36799;SDS011;22752;51.960;5.886;2023-12-28T05:09:34;7.57;;;1.97;;
36799;SDS011;22752;51.960;5.886;2023-12-28T05:12:00;7.50;;;2.10;;
36799;SDS011;22752;51.960;5.886;2023-12-28T05:14:25;9.67;;;1.90;;
36799;SDS011;22752;51.960;5.886;2023-12-28T05:16:51;11.13;;;2.27;;
36799;SDS011;22752;51.960;5.886;2023-12-28T05:19:17;19.43;;;2.53;;
36799;SDS011;22752;51.960;5.886;2023-12-28T05:21:42;15.27;;;2.87;;
36799;SDS011;22752;51.960;5.886;2023-12-28T05:24:08;10.43;;;2.37;;
36799;SDS011;22752;51.960;5.886;2023-12-28T05:26:34;11.07;;;2.37;;
36799;SDS011;22752;51.960;5.886;2023-12-28T05:28:59;8.47;;;1.87;;
36799;SDS011;22752;51.960;5.886;2023-12-28T05:31:25;10.37;;;2.43;;
36799;SDS011;22752;51.960;5.886;2023-12-28T05:33:51;9.40;;;2.13;;
36799;SDS011;22752;51.960;5.886;2023-12-28T05:36:17;9.13;;;2.37;;
36799;SDS011;22752;51.960;5.886;2023-12-28T05:38:42;18.30;;;3.33;;
36799;SDS011;22752;51.960;5.886;2023-12-28T05:41:11;18.47;;;3.00;;
36799;SDS011;22752;51.960;5.886;2023-12-28T05:43:37;13.40;;;3.07;;
36799;SDS011;22752;51.960;5.886;2023-12-28T05:46:03;10.20;;;2.23;;
36799;SDS011;22752;51.960;5.886;2023-12-28T05:48:29;14.07;;;2.57;;
36799;SDS011;22752;51.960;5.886;2023-12-28T05:50:56;8.33;;;1.87;;
36799;SDS011;22752;51.960;5.886;2023-12-28T05:53:23;9.93;;;3.10;;
36799;SDS011;22752;51.960;5.886;2023-12-28T05:55:49;13.53;;;2.30;;
36799;SDS011;22752;51.960;5.886;2023-12-28T05:58:14;13.23;;;2.93;;
36799;SDS011;22752;51.960;5.886;2023-12-28T06:00:40;14.40;;;2.50;;
36799;SDS011;22752;51.960;5.886;2023-12-28T06:03:06;16.90;;;2.40;;
36799;SDS011;22752;51.960;5.886;2023-12-28T06:05:32;15.13;;;3.00;;
36799;SDS011;22752;51.960;5.886;2023-12-28T06:07:57;10.10;;;2.30;;
36799;SDS011;22752;51.960;5.886;2023-12-28T06:10:23;11.50;;;2.37;;
36799;SDS011;22752;51.960;5.886;2023-12-28T06:12:51;14.87;;;2.80;;
36799;SDS011;22752;51.960;5.886;2023-12-28T06:15:17;14.87;;;3.33;;
36799;SDS011;22752;51.960;5.886;2023-12-28T06:17:43;12.40;;;2.33;;
36799;SDS011;22752;51.960;5.886;2023-12-28T06:20:09;13.97;;;2.80;;
36799;SDS011;22752;51.960;5.886;2023-12-28T06:22:38;9.70;;;2.50;;
36799;SDS011;22752;51.960;5.886;2023-12-28T06:25:04;14.37;;;2.80;;
36799;SDS011;22752;51.960;5.886;2023-12-28T06:27:31;16.90;;;2.77;;
36799;SDS011;22752;51.960;5.886;2023-12-28T06:29:57;16.23;;;2.93;;
36799;SDS011;22752;51.960;5.886;2023-12-28T06:32:22;11.67;;;2.83;;
36799;SDS011;22752;51.960;5.886;2023-12-28T06:34:48;14.80;;;2.50;;
36799;SDS011;22752;51.960;5.886;2023-12-28T06:37:14;11.80;;;2.73;;
36799;SDS011;22752;51.960;5.886;2023-12-28T06:39:40;15.90;;;2.73;;
36799;SDS011;22752;51.960;5.886;2023-12-28T06:42:05;12.83;;;2.40;;
36799;SDS011;22752;51.960;5.886;2023-12-28T06:44:31;12.00;;;2.70;;
36799;SDS011;22752;51.960;5.886;2023-12-28T06:46:57;13.20;;;2.63;;
36799;SDS011;22752;51.960;5.886;2023-12-28T06:49:23;12.27;;;2.40;;
36799;SDS011;22752;51.960;5.886;2023-12-28T06:51:50;9.83;;;2.57;;
36799;SDS011;22752;51.960;5.886;2023-12-28T06:54:16;15.97;;;2.97;;
36799;SDS011;22752;51.960;5.886;2023-12-28T06:56:42;13.83;;;2.70;;
36799;SDS011;22752;51.960;5.886;2023-12-28T06:59:08;16.13;;;2.53;;
36799;SDS011;22752;51.960;5.886;2023-12-28T07:01:40;17.90;;;2.87;;
36799;SDS011;22752;51.960;5.886;2023-12-28T07:04:06;20.67;;;3.30;;
36799;SDS011;22752;51.960;5.886;2023-12-28T07:06:32;8.30;;;2.20;;
36799;SDS011;22752;51.960;5.886;2023-12-28T07:08:58;13.97;;;2.60;;
36799;SDS011;22752;51.960;5.886;2023-12-28T07:11:24;12.70;;;2.30;;
36799;SDS011;22752;51.960;5.886;2023-12-28T07:13:51;15.27;;;3.03;;
36799;SDS011;22752;51.960;5.886;2023-12-28T07:16:17;17.43;;;2.77;;
36799;SDS011;22752;51.960;5.886;2023-12-28T07:18:43;14.97;;;2.47;;
36799;SDS011;22752;51.960;5.886;2023-12-28T07:21:08;14.97;;;2.70;;
36799;SDS011;22752;51.960;5.886;2023-12-28T07:23:37;15.77;;;3.37;;
36799;SDS011;22752;51.960;5.886;2023-12-28T07:26:03;14.80;;;2.70;;
36799;SDS011;22752;51.960;5.886;2023-12-28T07:28:29;17.73;;;3.40;;
36799;SDS011;22752;51.960;5.886;2023-12-28T07:30:55;16.47;;;2.77;;
36799;SDS011;22752;51.960;5.886;2023-12-28T07:33:20;19.20;;;2.83;;
36799;SDS011;22752;51.960;5.886;2023-12-28T07:35:46;17.30;;;2.97;;
36799;SDS011;22752;51.960;5.886;2023-12-28T07:38:12;21.77;;;4.17;;
36799;SDS011;22752;51.960;5.886;2023-12-28T07:40:38;16.07;;;3.23;;
36799;SDS011;22752;51.960;5.886;2023-12-28T07:43:04;15.63;;;2.97;;
36799;SDS011;22752;51.960;5.886;2023-12-28T07:45:29;18.63;;;2.97;;
36799;SDS011;22752;51.960;5.886;2023-12-28T07:47:55;16.87;;;3.20;;
36799;SDS011;22752;51.960;5.886;2023-12-28T07:50:21;17.43;;;2.97;;
36799;SDS011;22752;51.960;5.886;2023-12-28T07:52:47;20.53;;;4.03;;
36799;SDS011;22752;51.960;5.886;2023-12-28T07:55:13;18.93;;;3.30;;
36799;SDS011;22752;51.960;5.886;2023-12-28T07:57:39;14.43;;;2.97;;
36799;SDS011;22752;51.960;5.886;2023-12-28T08:00:05;14.67;;;2.73;;
36799;SDS011;22752;51.960;5.886;2023-12-28T08:02:31;21.57;;;4.10;;
36799;SDS011;22752;51.960;5.886;2023-12-28T08:04:58;18.50;;;3.27;;
36799;SDS011;22752;51.960;5.886;2023-12-28T08:07:23;18.00;;;3.23;;
36799;SDS011;22752;51.960;5.886;2023-12-28T08:09:49;23.17;;;4.23;;
36799;SDS011;22752;51.960;5.886;2023-12-28T08:12:15;14.50;;;2.97;;
36799;SDS011;22752;51.960;5.886;2023-12-28T08:14:42;16.10;;;3.07;;
36799;SDS011;22752;51.960;5.886;2023-12-28T08:17:08;21.23;;;3.60;;
36799;SDS011;22752;51.960;5.886;2023-12-28T08:19:33;17.83;;;3.43;;
36799;SDS011;22752;51.960;5.886;2023-12-28T08:21:59;18.23;;;3.10;;
36799;SDS011;22752;51.960;5.886;2023-12-28T08:24:25;15.07;;;3.00;;
36799;SDS011;22752;51.960;5.886;2023-12-28T08:26:50;21.37;;;2.87;;
36799;SDS011;22752;51.960;5.886;2023-12-28T08:29:16;18.43;;;3.03;;
36799;SDS011;22752;51.960;5.886;2023-12-28T08:31:43;15.73;;;2.90;;
36799;SDS011;22752;51.960;5.886;2023-12-28T08:34:08;22.67;;;3.53;;
36799;SDS011;22752;51.960;5.886;2023-12-28T08:36:34;19.90;;;4.30;;
36799;SDS011;22752;51.960;5.886;2023-12-28T08:39:00;22.93;;;4.17;;
36799;SDS011;22752;51.960;5.886;2023-12-28T08:41:25;16.23;;;3.10;;
36799;SDS011;22752;51.960;5.886;2023-12-28T08:43:52;11.87;;;2.60;;
36799;SDS011;22752;51.960;5.886;2023-12-28T08:46:19;21.70;;;3.23;;
36799;SDS011;22752;51.960;5.886;2023-12-28T08:48:46;24.33;;;3.77;;
36799;SDS011;22752;51.960;5.886;2023-12-28T08:51:11;18.77;;;3.77;;
36799;SDS011;22752;51.960;5.886;2023-12-28T08:53:39;15.13;;;2.93;;
36799;SDS011;22752;51.960;5.886;2023-12-28T08:56:18;22.43;;;3.77;;
36799;SDS011;22752;51.960;5.886;2023-12-28T08:58:45;21.90;;;3.80;;
36799;SDS011;22752;51.960;5.886;2023-12-28T09:01:21;21.13;;;3.77;;
36799;SDS011;22752;51.960;5.886;2023-12-28T09:03:48;20.10;;;3.47;;
36799;SDS011;22752;51.960;5.886;2023-12-28T09:06:17;26.07;;;5.07;;
36799;SDS011;22752;51.960;5.886;2023-12-28T09:08:44;21.93;;;4.33;;
36799;SDS011;22752;51.960;5.886;2023-12-28T09:11:12;16.30;;;3.17;;
36799;SDS011;22752;51.960;5.886;2023-12-28T09:13:38;18.13;;;3.00;;
36799;SDS011;22752;51.960;5.886;2023-12-28T09:16:05;15.07;;;2.92;;
36799;SDS011;22752;51.960;5.886;2023-12-28T09:18:33;13.17;;;2.93;;
36799;SDS011;22752;51.960;5.886;2023-12-28T09:20:58;14.02;;;3.13;;
36799;SDS011;22752;51.960;5.886;2023-12-28T09:23:24;20.08;;;3.15;;
36799;SDS011;22752;51.960;5.886;2023-12-28T09:25:50;21.03;;;3.30;;
36799;SDS011;22752;51.960;5.886;2023-12-28T09:28:15;22.83;;;3.97;;
36799;SDS011;22752;51.960;5.886;2023-12-28T09:30:41;16.57;;;3.53;;
36799;SDS011;22752;51.960;5.886;2023-12-28T09:33:07;17.60;;;3.00;;
36799;SDS011;22752;51.960;5.886;2023-12-28T09:35:33;26.33;;;3.40;;
36799;SDS011;22752;51.960;5.886;2023-12-28T09:37:58;19.60;;;3.00;;
36799;SDS011;22752;51.960;5.886;2023-12-28T09:40:24;19.30;;;3.30;;
36799;SDS011;22752;51.960;5.886;2023-12-28T09:42:57;22.50;;;3.43;;
36799;SDS011;22752;51.960;5.886;2023-12-28T09:45:46;21.52;;;3.95;;
36799;SDS011;22752;51.960;5.886;2023-12-28T09:48:14;19.48;;;3.67;;
36799;SDS011;22752;51.960;5.886;2023-12-28T09:50:41;15.80;;;3.35;;
36799;SDS011;22752;51.960;5.886;2023-12-28T09:53:08;21.23;;;3.58;;
36799;SDS011;22752;51.960;5.886;2023-12-28T09:55:33;19.23;;;3.53;;
36799;SDS011;22752;51.960;5.886;2023-12-28T09:57:59;12.27;;;2.43;;
36799;SDS011;22752;51.960;5.886;2023-12-28T10:00:27;19.02;;;3.47;;
36799;SDS011;22752;51.960;5.886;2023-12-28T10:02:52;20.67;;;3.63;;
36799;SDS011;22752;51.960;5.886;2023-12-28T10:05:18;19.90;;;3.17;;
36799;SDS011;22752;51.960;5.886;2023-12-28T10:07:44;18.58;;;3.53;;
36799;SDS011;22752;51.960;5.886;2023-12-28T10:10:10;17.08;;;2.75;;
36799;SDS011;22752;51.960;5.886;2023-12-28T10:12:36;18.05;;;3.08;;
36799;SDS011;22752;51.960;5.886;2023-12-28T10:15:03;26.90;;;3.70;;
36799;SDS011;22752;51.960;5.886;2023-12-28T10:17:31;21.40;;;3.22;;
36799;SDS011;22752;51.960;5.886;2023-12-28T10:19:58;16.00;;;3.55;;
36799;SDS011;22752;51.960;5.886;2023-12-28T10:22:29;19.95;;;3.75;;
36799;SDS011;22752;51.960;5.886;2023-12-28T10:24:55;21.60;;;3.67;;
36799;SDS011;22752;51.960;5.886;2023-12-28T10:27:20;14.35;;;2.58;;
36799;SDS011;22752;51.960;5.886;2023-12-28T10:29:46;17.35;;;3.45;;
36799;SDS011;22752;51.960;5.886;2023-12-28T10:32:12;21.52;;;3.45;;
36799;SDS011;22752;51.960;5.886;2023-12-28T10:34:38;19.63;;;4.13;;
36799;SDS011;22752;51.960;5.886;2023-12-28T10:37:04;16.92;;;3.72;;
36799;SDS011;22752;51.960;5.886;2023-12-28T10:39:31;23.73;;;3.65;;
36799;SDS011;22752;51.960;5.886;2023-12-28T10:41:59;19.90;;;3.53;;
36799;SDS011;22752;51.960;5.886;2023-12-28T10:44:29;18.13;;;3.40;;
36799;SDS011;22752;51.960;5.886;2023-12-28T10:47:00;19.83;;;3.20;;
36799;SDS011;22752;51.960;5.886;2023-12-28T10:49:27;19.38;;;3.28;;
36799;SDS011;22752;51.960;5.886;2023-12-28T10:51:55;16.98;;;3.50;;
36799;SDS011;22752;51.960;5.886;2023-12-28T10:57:10;19.65;;;4.18;;
36799;SDS011;22752;51.960;5.886;2023-12-28T11:02:56;20.20;;;3.67;;
36799;SDS011;22752;51.960;5.886;2023-12-28T11:05:21;21.40;;;3.20;;
36799;SDS011;22752;51.960;5.886;2023-12-28T11:07:49;21.42;;;4.00;;
36799;SDS011;22752;51.960;5.886;2023-12-28T11:10:18;15.10;;;3.30;;
36799;SDS011;22752;51.960;5.886;2023-12-28T11:12:48;19.70;;;3.55;;
36799;SDS011;22752;51.960;5.886;2023-12-28T11:15:15;17.48;;;4.13;;
36799;SDS011;22752;51.960;5.886;2023-12-28T11:17:43;22.55;;;3.47;;
36799;SDS011;22752;51.960;5.886;2023-12-28T11:20:08;23.75;;;3.80;;
36799;SDS011;22752;51.960;5.886;2023-12-28T11:22:35;20.25;;;3.47;;
36799;SDS011;22752;51.960;5.886;2023-12-28T11:25:02;17.85;;;3.13;;
36799;SDS011;22752;51.960;5.886;2023-12-28T11:27:35;26.98;;;3.90;;
36799;SDS011;22752;51.960;5.886;2023-12-28T11:30:03;18.38;;;3.65;;
36799;SDS011;22752;51.960;5.886;2023-12-28T11:32:33;13.60;;;3.22;;
36799;SDS011;22752;51.960;5.886;2023-12-28T11:35:00;17.52;;;3.10;;
36799;SDS011;22752;51.960;5.886;2023-12-28T11:37:26;15.48;;;3.20;;
36799;SDS011;22752;51.960;5.886;2023-12-28T11:39:54;24.85;;;3.80;;
36799;SDS011;22752;51.960;5.886;2023-12-28T11:42:23;21.92;;;4.38;;
36799;SDS011;22752;51.960;5.886;2023-12-28T11:44:53;22.42;;;4.45;;
36799;SDS011;22752;51.960;5.886;2023-12-28T11:47:21;22.65;;;4.25;;
36799;SDS011;22752;51.960;5.886;2023-12-28T11:49:51;22.42;;;3.70;;
36799;SDS011;22752;51.960;5.886;2023-12-28T11:54:54;20.48;;;3.20;;
36799;SDS011;22752;51.960;5.886;2023-12-28T11:57:21;23.05;;;3.90;;
36799;SDS011;22752;51.960;5.886;2023-12-28T12:00:09;19.33;;;3.67;;
36799;SDS011;22752;51.960;5.886;2023-12-28T12:02:34;19.25;;;3.30;;
36799;SDS011;22752;51.960;5.886;2023-12-28T12:04:59;17.23;;;3.58;;
36799;SDS011;22752;51.960;5.886;2023-12-28T12:07:26;24.70;;;4.20;;
36799;SDS011;22752;51.960;5.886;2023-12-28T12:09:58;22.77;;;3.47;;
36799;SDS011;22752;51.960;5.886;2023-12-28T12:12:25;25.05;;;4.72;;
36799;SDS011;22752;51.960;5.886;2023-12-28T12:14:50;22.27;;;4.18;;
36799;SDS011;22752;51.960;5.886;2023-12-28T12:17:17;21.45;;;3.58;;
36799;SDS011;22752;51.960;5.886;2023-12-28T12:19:44;16.55;;;3.58;;
36799;SDS011;22752;51.960;5.886;2023-12-28T12:22:12;23.17;;;3.35;;
36799;SDS011;22752;51.960;5.886;2023-12-28T12:24:39;20.40;;;3.53;;
36799;SDS011;22752;51.960;5.886;2023-12-28T12:27:06;31.83;;;4.45;;
36799;SDS011;22752;51.960;5.886;2023-12-28T12:29:32;24.55;;;4.00;;
36799;SDS011;22752;51.960;5.886;2023-12-28T12:31:57;22.88;;;3.95;;
36799;SDS011;22752;51.960;5.886;2023-12-28T12:34:23;24.58;;;3.80;;
36799;SDS011;22752;51.960;5.886;2023-12-28T12:36:49;21.17;;;3.65;;
36799;SDS011;22752;51.960;5.886;2023-12-28T12:39:17;20.55;;;3.33;;
36799;SDS011;22752;51.960;5.886;2023-12-28T12:41:45;25.58;;;3.92;;
36799;SDS011;22752;51.960;5.886;2023-12-28T12:44:11;26.43;;;3.47;;
36799;SDS011;22752;51.960;5.886;2023-12-28T12:46:37;20.50;;;4.05;;
36799;SDS011;22752;51.960;5.886;2023-12-28T12:49:03;24.00;;;3.72;;
36799;SDS011;22752;51.960;5.886;2023-12-28T12:51:31;22.85;;;4.05;;
36799;SDS011;22752;51.960;5.886;2023-12-28T12:53:57;22.50;;;3.97;;
36799;SDS011;22752;51.960;5.886;2023-12-28T12:56:23;23.15;;;3.80;;
36799;SDS011;22752;51.960;5.886;2023-12-28T12:58:50;16.98;;;3.85;;
36799;SDS011;22752;51.960;5.886;2023-12-28T13:01:16;15.85;;;3.00;;
36799;SDS011;22752;51.960;5.886;2023-12-28T13:03:42;22.25;;;3.65;;
36799;SDS011;22752;51.960;5.886;2023-12-28T13:06:07;23.85;;;3.90;;
36799;SDS011;22752;51.960;5.886;2023-12-28T13:08:33;15.93;;;3.08;;
36799;SDS011;22752;51.960;5.886;2023-12-28T13:10:59;17.27;;;3.08;;
36799;SDS011;22752;51.960;5.886;2023-12-28T13:13:25;20.48;;;3.42;;
36799;SDS011;22752;51.960;5.886;2023-12-28T13:15:50;22.60;;;3.35;;
36799;SDS011;22752;51.960;5.886;2023-12-28T13:18:16;19.55;;;3.20;;
36799;SDS011;22752;51.960;5.886;2023-12-28T13:20:41;18.60;;;4.45;;
36799;SDS011;22752;51.960;5.886;2023-12-28T13:23:09;18.98;;;2.95;;
36799;SDS011;22752;51.960;5.886;2023-12-28T13:25:35;28.55;;;3.95;;
36799;SDS011;22752;51.960;5.886;2023-12-28T13:28:01;19.63;;;3.42;;
36799;SDS011;22752;51.960;5.886;2023-12-28T13:30:27;18.23;;;3.63;;
36799;SDS011;22752;51.960;5.886;2023-12-28T13:32:54;13.23;;;3.05;;
36799;SDS011;22752;51.960;5.886;2023-12-28T13:35:23;17.45;;;3.22;;
36799;SDS011;22752;51.960;5.886;2023-12-28T13:37:48;15.30;;;3.05;;
36799;SDS011;22752;51.960;5.886;2023-12-28T13:40:14;20.98;;;3.95;;
36799;SDS011;22752;51.960;5.886;2023-12-28T13:42:41;17.55;;;3.20;;
36799;SDS011;22752;51.960;5.886;2023-12-28T13:45:07;22.77;;;3.45;;
36799;SDS011;22752;51.960;5.886;2023-12-28T13:47:32;23.83;;;4.18;;
36799;SDS011;22752;51.960;5.886;2023-12-28T13:49:58;20.75;;;3.60;;
36799;SDS011;22752;51.960;5.886;2023-12-28T13:52:24;23.52;;;3.97;;
36799;SDS011;22752;51.960;5.886;2023-12-28T13:54:49;23.20;;;8.00;;
36799;SDS011;22752;51.960;5.886;2023-12-28T13:57:15;18.13;;;3.97;;
36799;SDS011;22752;51.960;5.886;2023-12-28T13:59:41;17.30;;;3.47;;
36799;SDS011;22752;51.960;5.886;2023-12-28T14:02:06;18.88;;;2.90;;
36799;SDS011;22752;51.960;5.886;2023-12-28T14:04:32;21.75;;;3.60;;
36799;SDS011;22752;51.960;5.886;2023-12-28T14:06:58;18.10;;;3.00;;
36799;SDS011;22752;51.960;5.886;2023-12-28T14:09:23;22.70;;;3.47;;
36799;SDS011;22752;51.960;5.886;2023-12-28T14:11:49;17.95;;;3.08;;
36799;SDS011;22752;51.960;5.886;2023-12-28T14:14:15;22.60;;;3.72;;
36799;SDS011;22752;51.960;5.886;2023-12-28T14:16:40;22.25;;;4.18;;
36799;SDS011;22752;51.960;5.886;2023-12-28T14:19:06;18.90;;;3.35;;
36799;SDS011;22752;51.960;5.886;2023-12-28T14:21:38;23.80;;;4.22;;
36799;SDS011;22752;51.960;5.886;2023-12-28T14:24:05;16.85;;;3.40;;
36799;SDS011;22752;51.960;5.886;2023-12-28T14:26:31;24.58;;;4.00;;
36799;SDS011;22752;51.960;5.886;2023-12-28T14:28:58;18.50;;;3.85;;
36799;SDS011;22752;51.960;5.886;2023-12-28T14:31:28;24.10;;;3.72;;
36799;SDS011;22752;51.960;5.886;2023-12-28T14:33:54;21.63;;;3.85;;
36799;SDS011;22752;51.960;5.886;2023-12-28T14:36:35;19.50;;;3.00;;
36799;SDS011;22752;51.960;5.886;2023-12-28T14:39:03;26.00;;;3.58;;
36799;SDS011;22752;51.960;5.886;2023-12-28T14:41:30;22.60;;;3.72;;
36799;SDS011;22752;51.960;5.886;2023-12-28T14:43:56;16.27;;;3.20;;
36799;SDS011;22752;51.960;5.886;2023-12-28T14:46:23;17.10;;;3.58;;
36799;SDS011;22752;51.960;5.886;2023-12-28T14:48:49;20.92;;;3.30;;